createdAt,value
2018-04-04T00:00:04.998Z,14.1
2018-04-04T00:15:04.463Z,13.9
2018-04-04T00:30:05.213Z,13.6
2018-04-04T00:45:04.719Z,13.5
2018-04-04T01:00:04.780Z,13.3
2018-04-04T01:15:04.906Z,13.1
2018-04-04T01:30:04.988Z,12.9
2018-04-04T01:45:04.391Z,12.8
2018-04-04T02:00:04.810Z,12.6
2018-04-04T02:15:04.390Z,12.5
2018-04-04T02:30:04.462Z,12.2
2018-04-04T02:45:04.475Z,12.2
2018-04-04T03:00:04.353Z,11.9
2018-04-04T03:15:04.302Z,11.7
2018-04-04T03:30:04.442Z,11.6
2018-04-04T03:45:04.317Z,11.5
2018-04-04T04:00:04.733Z,11.4
2018-04-04T04:15:05.154Z,11.2
2018-04-04T04:30:04.478Z,11.1
2018-04-04T04:45:04.738Z,11
2018-04-04T05:00:04.518Z,10.9
2018-04-04T05:15:04.888Z,10.8
2018-04-04T05:30:04.614Z,10.8
2018-04-04T05:45:04.996Z,11.1
2018-04-04T06:00:04.994Z,11.6
2018-04-04T06:15:04.400Z,12
2018-04-04T06:30:04.597Z,12.5
2018-04-04T06:45:04.499Z,13
2018-04-04T07:00:04.944Z,13.6
2018-04-04T07:15:04.294Z,15.2
2018-04-04T07:30:04.990Z,16.1
2018-04-04T07:45:04.479Z,17.6
2018-04-04T08:00:04.888Z,19.6
2018-04-04T08:15:04.281Z,25.6
2018-04-04T08:30:04.900Z,29.9
2018-04-04T08:45:04.264Z,37.7
2018-04-04T09:00:04.714Z,43.6
2018-04-04T09:15:04.863Z,45.3
2018-04-04T09:30:04.537Z,46.1
2018-04-04T09:45:04.631Z,45.4
2018-04-04T10:00:05.125Z,34
2018-04-04T10:15:04.633Z,28.3
2018-04-04T10:30:04.795Z,26.2
2018-04-04T10:45:05.290Z,24.9
2018-04-04T11:00:04.952Z,24.1
2018-04-04T11:15:04.582Z,24
2018-04-04T11:30:04.762Z,23.8
2018-04-04T11:45:05.162Z,23.6
2018-04-04T12:00:04.605Z,23.8
2018-04-04T12:15:05.471Z,23.6
2018-04-04T12:30:04.936Z,24.1
2018-04-04T12:45:05.002Z,21.6
2018-04-04T13:00:04.800Z,20.6
2018-04-04T13:15:05.234Z,19.6
2018-04-04T13:30:05.281Z,18.8
2018-04-04T13:45:05.026Z,18.2
2018-04-04T14:00:05.058Z,17.8
2018-04-04T14:15:04.535Z,17.4
2018-04-04T14:30:04.536Z,17.3
2018-04-04T14:45:04.481Z,17.1
2018-04-04T15:00:04.407Z,16.2
2018-04-04T15:15:04.398Z,15.4
2018-04-04T15:30:05.040Z,15.4
2018-04-04T15:45:04.469Z,15.6
2018-04-04T16:00:04.892Z,15.3
2018-04-04T16:15:04.923Z,15
2018-04-04T16:30:04.764Z,14.4
2018-04-04T16:45:04.728Z,14.1
2018-04-04T17:00:05.732Z,14
2018-04-04T17:15:04.677Z,13.9
2018-04-04T17:30:04.904Z,13.8
2018-04-04T17:45:04.857Z,13.9
2018-04-04T18:00:04.794Z,13.9
2018-04-04T18:15:04.278Z,14.1
2018-04-04T18:30:05.022Z,14.1
2018-04-04T18:45:04.908Z,14.3
2018-04-04T19:00:04.607Z,14.2
2018-04-04T19:15:04.525Z,14.4
2018-04-04T19:30:04.613Z,14.4
2018-04-04T19:45:05.079Z,14.4
2018-04-04T20:00:04.536Z,14.3
2018-04-04T20:15:04.440Z,14.3
2018-04-04T20:30:05.208Z,14.4
2018-04-04T20:45:04.692Z,14.5
2018-04-04T21:00:04.635Z,14.3
2018-04-04T21:15:05.117Z,14
2018-04-04T21:30:04.291Z,13.8
2018-04-04T21:45:04.701Z,13.7
2018-04-04T22:00:05.111Z,13.5
2018-04-04T22:15:04.569Z,13.3
2018-04-04T22:30:06.687Z,13.2
2018-04-04T22:45:05.521Z,13.2
2018-04-04T23:00:05.190Z,13.2
2018-04-04T23:15:05.126Z,12.9
2018-04-04T23:30:04.746Z,13.1
2018-04-04T23:45:05.138Z,13
